Etusivu
METAR-TAF:

METAR-TAF

Lentoasemat :

Bainbridge, Georgia, Yhdysvallat

Leveyspiiri: 30-58N, Pituuspiiri: 084-38W, korkeus merenpinnasta: 43 m

Tämänhetkinen sää

Tämä raportti tehtiin 20 minuuttia sitten, kello 05.15 UTC
Tuuli 6 kn lounaasta
Lämpötila 19°C
Kosteus 68%
Ilmanpaine 1014 hPa
Näkyvyys: 16.1 km
selkeää

METAR: KBGE 050515Z AUTO 23006KT 10SM CLR 19/13 A2994 RMK AO2 T01940129

Aika: 01:35 (05:35 UTC)


TAF: puuttuu

Säähavainnot ja -ennusteet yli 4000 lentoasemalta (METAR- ja TAF-raportit).

Käytössä olevat sääasemat on merkitty karttaan keltaisilla ja punaisilla pisteillä.

Aseta hiiri pisteen päälle nähdäksesi sääaseman nimen.

Klikkaa sitten nähdäksesi säähavainnot ja -ennusteet.

Kartan vaihtaminen: klikkaa mustalla rastilla varustettuja vihreitä pisteitä, niin voit zoomata sisään; viivalla varustettua vihreää pistettä, niin voit zoomata ulos tai vihreitä nuolia, niin pääset viereisille kartoille.


METAR-TAF: